sensor_id;sensor_type;location;lat;lon;timestamp;P1;durP1;ratioP1;P2;durP2;ratioP2
19221;SDS011;9745;50.828;4.378;2022-10-31T00:00:48;14.50;;;6.83;;
19221;SDS011;9745;50.828;4.378;2022-10-31T00:03:15;10.57;;;6.10;;
19221;SDS011;9745;50.828;4.378;2022-10-31T00:05:42;16.23;;;8.17;;
19221;SDS011;9745;50.828;4.378;2022-10-31T00:08:08;10.73;;;6.80;;
19221;SDS011;9745;50.828;4.378;2022-10-31T00:10:37;11.03;;;6.70;;
19221;SDS011;9745;50.828;4.378;2022-10-31T00:13:02;10.77;;;6.53;;
19221;SDS011;9745;50.828;4.378;2022-10-31T00:15:28;17.37;;;6.80;;
19221;SDS011;9745;50.828;4.378;2022-10-31T00:17:55;10.63;;;6.23;;
19221;SDS011;9745;50.828;4.378;2022-10-31T00:20:21;10.73;;;6.67;;
19221;SDS011;9745;50.828;4.378;2022-10-31T00:22:46;12.70;;;6.40;;
19221;SDS011;9745;50.828;4.378;2022-10-31T00:25:13;14.57;;;6.90;;
19221;SDS011;9745;50.828;4.378;2022-10-31T00:27:39;16.73;;;8.20;;
19221;SDS011;9745;50.828;4.378;2022-10-31T00:30:05;15.43;;;6.50;;
19221;SDS011;9745;50.828;4.378;2022-10-31T00:32:31;16.57;;;7.33;;
19221;SDS011;9745;50.828;4.378;2022-10-31T00:34:57;8.63;;;6.10;;
19221;SDS011;9745;50.828;4.378;2022-10-31T00:37:23;11.77;;;7.70;;
19221;SDS011;9745;50.828;4.378;2022-10-31T00:39:49;14.50;;;6.53;;
19221;SDS011;9745;50.828;4.378;2022-10-31T00:42:15;15.40;;;6.63;;
19221;SDS011;9745;50.828;4.378;2022-10-31T00:44:41;15.23;;;7.03;;
19221;SDS011;9745;50.828;4.378;2022-10-31T00:47:07;13.27;;;6.63;;
19221;SDS011;9745;50.828;4.378;2022-10-31T00:49:33;12.77;;;6.50;;
19221;SDS011;9745;50.828;4.378;2022-10-31T00:51:59;12.17;;;6.77;;
19221;SDS011;9745;50.828;4.378;2022-10-31T00:54:25;13.30;;;6.40;;
19221;SDS011;9745;50.828;4.378;2022-10-31T00:56:51;11.60;;;6.37;;
19221;SDS011;9745;50.828;4.378;2022-10-31T00:59:17;14.83;;;6.43;;
19221;SDS011;9745;50.828;4.378;2022-10-31T01:01:43;13.47;;;6.00;;
19221;SDS011;9745;50.828;4.378;2022-10-31T01:04:09;9.97;;;6.07;;
19221;SDS011;9745;50.828;4.378;2022-10-31T01:06:34;13.37;;;6.47;;
19221;SDS011;9745;50.828;4.378;2022-10-31T01:09:00;18.37;;;6.70;;
19221;SDS011;9745;50.828;4.378;2022-10-31T01:11:26;10.10;;;6.17;;
19221;SDS011;9745;50.828;4.378;2022-10-31T01:13:53;14.97;;;6.43;;
19221;SDS011;9745;50.828;4.378;2022-10-31T01:16:20;10.17;;;5.83;;
19221;SDS011;9745;50.828;4.378;2022-10-31T01:18:47;20.90;;;6.30;;
19221;SDS011;9745;50.828;4.378;2022-10-31T01:21:14;18.23;;;6.20;;
19221;SDS011;9745;50.828;4.378;2022-10-31T01:23:40;12.73;;;6.40;;
19221;SDS011;9745;50.828;4.378;2022-10-31T01:26:14;11.67;;;6.50;;
19221;SDS011;9745;50.828;4.378;2022-10-31T01:28:48;15.03;;;6.33;;
19221;SDS011;9745;50.828;4.378;2022-10-31T01:31:14;12.77;;;6.50;;
19221;SDS011;9745;50.828;4.378;2022-10-31T01:33:41;11.40;;;6.63;;
19221;SDS011;9745;50.828;4.378;2022-10-31T01:36:11;12.10;;;6.67;;
19221;SDS011;9745;50.828;4.378;2022-10-31T01:38:38;11.60;;;6.47;;
19221;SDS011;9745;50.828;4.378;2022-10-31T01:41:04;9.07;;;5.77;;
19221;SDS011;9745;50.828;4.378;2022-10-31T01:43:49;10.07;;;5.37;;
19221;SDS011;9745;50.828;4.378;2022-10-31T01:46:17;14.47;;;5.97;;
19221;SDS011;9745;50.828;4.378;2022-10-31T01:48:45;17.47;;;6.63;;
19221;SDS011;9745;50.828;4.378;2022-10-31T01:51:11;15.53;;;6.67;;
19221;SDS011;9745;50.828;4.378;2022-10-31T01:53:38;11.63;;;5.93;;
19221;SDS011;9745;50.828;4.378;2022-10-31T01:56:04;14.90;;;6.40;;
19221;SDS011;9745;50.828;4.378;2022-10-31T01:58:30;12.00;;;6.43;;
19221;SDS011;9745;50.828;4.378;2022-10-31T02:00:58;13.60;;;6.00;;
19221;SDS011;9745;50.828;4.378;2022-10-31T02:03:24;12.47;;;6.60;;
19221;SDS011;9745;50.828;4.378;2022-10-31T02:05:51;14.27;;;7.17;;
19221;SDS011;9745;50.828;4.378;2022-10-31T02:08:20;11.33;;;6.27;;
19221;SDS011;9745;50.828;4.378;2022-10-31T02:10:47;11.67;;;6.40;;
19221;SDS011;9745;50.828;4.378;2022-10-31T02:13:13;17.27;;;7.87;;
19221;SDS011;9745;50.828;4.378;2022-10-31T02:15:39;13.00;;;6.63;;
19221;SDS011;9745;50.828;4.378;2022-10-31T02:18:06;15.50;;;7.33;;
19221;SDS011;9745;50.828;4.378;2022-10-31T02:28:34;12.83;;;7.13;;
19221;SDS011;9745;50.828;4.378;2022-10-31T02:31:12;17.27;;;7.93;;
19221;SDS011;9745;50.828;4.378;2022-10-31T02:33:50;13.23;;;7.00;;
19221;SDS011;9745;50.828;4.378;2022-10-31T02:42:07;19.97;;;8.00;;
19221;SDS011;9745;50.828;4.378;2022-10-31T02:47:00;21.97;;;7.73;;
19221;SDS011;9745;50.828;4.378;2022-10-31T02:49:28;16.23;;;7.90;;
19221;SDS011;9745;50.828;4.378;2022-10-31T02:51:55;16.97;;;8.43;;
19221;SDS011;9745;50.828;4.378;2022-10-31T02:54:23;17.87;;;8.10;;
19221;SDS011;9745;50.828;4.378;2022-10-31T02:56:49;11.47;;;7.33;;
19221;SDS011;9745;50.828;4.378;2022-10-31T02:59:16;12.67;;;7.20;;
19221;SDS011;9745;50.828;4.378;2022-10-31T03:01:50;14.00;;;7.37;;
19221;SDS011;9745;50.828;4.378;2022-10-31T03:12:38;18.20;;;7.73;;
19221;SDS011;9745;50.828;4.378;2022-10-31T03:17:38;14.27;;;7.83;;
19221;SDS011;9745;50.828;4.378;2022-10-31T03:20:10;11.77;;;7.10;;
19221;SDS011;9745;50.828;4.378;2022-10-31T03:22:36;18.17;;;8.23;;
19221;SDS011;9745;50.828;4.378;2022-10-31T03:25:03;15.47;;;7.83;;
19221;SDS011;9745;50.828;4.378;2022-10-31T03:27:31;13.33;;;7.27;;
19221;SDS011;9745;50.828;4.378;2022-10-31T03:29:58;19.40;;;7.23;;
19221;SDS011;9745;50.828;4.378;2022-10-31T03:32:27;15.77;;;7.47;;
19221;SDS011;9745;50.828;4.378;2022-10-31T03:34:55;20.87;;;7.70;;
19221;SDS011;9745;50.828;4.378;2022-10-31T03:37:22;17.73;;;7.70;;
19221;SDS011;9745;50.828;4.378;2022-10-31T03:39:50;15.33;;;7.73;;
19221;SDS011;9745;50.828;4.378;2022-10-31T03:42:27;13.70;;;7.30;;
19221;SDS011;9745;50.828;4.378;2022-10-31T03:44:59;15.43;;;7.07;;
19221;SDS011;9745;50.828;4.378;2022-10-31T03:47:26;13.63;;;7.27;;
19221;SDS011;9745;50.828;4.378;2022-10-31T03:49:52;13.97;;;7.43;;
19221;SDS011;9745;50.828;4.378;2022-10-31T03:52:28;14.93;;;7.27;;
19221;SDS011;9745;50.828;4.378;2022-10-31T03:54:59;12.50;;;7.13;;
19221;SDS011;9745;50.828;4.378;2022-10-31T03:57:41;15.63;;;7.47;;
19221;SDS011;9745;50.828;4.378;2022-10-31T04:00:12;13.93;;;7.90;;
19221;SDS011;9745;50.828;4.378;2022-10-31T04:02:43;16.53;;;8.33;;
19221;SDS011;9745;50.828;4.378;2022-10-31T04:05:10;13.57;;;8.07;;
19221;SDS011;9745;50.828;4.378;2022-10-31T04:07:38;15.63;;;7.30;;
19221;SDS011;9745;50.828;4.378;2022-10-31T04:10:07;15.30;;;7.63;;
19221;SDS011;9745;50.828;4.378;2022-10-31T04:12:35;12.27;;;7.73;;
19221;SDS011;9745;50.828;4.378;2022-10-31T04:15:03;16.10;;;8.10;;
19221;SDS011;9745;50.828;4.378;2022-10-31T04:17:31;18.93;;;8.10;;
19221;SDS011;9745;50.828;4.378;2022-10-31T04:19:59;15.63;;;8.13;;
19221;SDS011;9745;50.828;4.378;2022-10-31T04:22:25;17.43;;;7.27;;
19221;SDS011;9745;50.828;4.378;2022-10-31T04:24:51;15.27;;;7.53;;
19221;SDS011;9745;50.828;4.378;2022-10-31T04:27:17;13.40;;;8.20;;
19221;SDS011;9745;50.828;4.378;2022-10-31T04:29:43;14.00;;;7.47;;
19221;SDS011;9745;50.828;4.378;2022-10-31T04:32:09;16.37;;;8.50;;
19221;SDS011;9745;50.828;4.378;2022-10-31T04:34:35;13.00;;;7.00;;
19221;SDS011;9745;50.828;4.378;2022-10-31T04:37:01;19.60;;;8.17;;
19221;SDS011;9745;50.828;4.378;2022-10-31T04:39:27;13.93;;;7.97;;
19221;SDS011;9745;50.828;4.378;2022-10-31T04:41:53;18.00;;;8.90;;
19221;SDS011;9745;50.828;4.378;2022-10-31T04:44:19;15.10;;;8.77;;
19221;SDS011;9745;50.828;4.378;2022-10-31T04:46:45;21.63;;;9.43;;
19221;SDS011;9745;50.828;4.378;2022-10-31T04:49:11;19.03;;;8.87;;
19221;SDS011;9745;50.828;4.378;2022-10-31T04:51:37;17.10;;;9.03;;
19221;SDS011;9745;50.828;4.378;2022-10-31T04:54:03;18.70;;;10.27;;
19221;SDS011;9745;50.828;4.378;2022-10-31T04:56:29;20.13;;;10.63;;
19221;SDS011;9745;50.828;4.378;2022-10-31T04:58:55;16.07;;;9.90;;
19221;SDS011;9745;50.828;4.378;2022-10-31T05:01:21;19.40;;;11.00;;
19221;SDS011;9745;50.828;4.378;2022-10-31T05:03:47;17.90;;;10.53;;
19221;SDS011;9745;50.828;4.378;2022-10-31T05:06:13;22.20;;;10.70;;
19221;SDS011;9745;50.828;4.378;2022-10-31T05:08:39;20.53;;;10.90;;
19221;SDS011;9745;50.828;4.378;2022-10-31T05:11:05;18.97;;;10.83;;
19221;SDS011;9745;50.828;4.378;2022-10-31T05:13:31;24.73;;;11.60;;
19221;SDS011;9745;50.828;4.378;2022-10-31T05:15:57;18.30;;;11.30;;
19221;SDS011;9745;50.828;4.378;2022-10-31T05:18:23;18.33;;;11.23;;
19221;SDS011;9745;50.828;4.378;2022-10-31T05:20:49;21.13;;;12.27;;
19221;SDS011;9745;50.828;4.378;2022-10-31T05:23:15;24.17;;;10.80;;
19221;SDS011;9745;50.828;4.378;2022-10-31T05:25:41;21.83;;;11.27;;
19221;SDS011;9745;50.828;4.378;2022-10-31T05:28:07;20.27;;;11.43;;
19221;SDS011;9745;50.828;4.378;2022-10-31T05:30:33;22.37;;;11.53;;
19221;SDS011;9745;50.828;4.378;2022-10-31T05:32:59;25.70;;;11.90;;
19221;SDS011;9745;50.828;4.378;2022-10-31T05:35:26;21.77;;;10.63;;
19221;SDS011;9745;50.828;4.378;2022-10-31T05:37:52;20.77;;;11.63;;
19221;SDS011;9745;50.828;4.378;2022-10-31T05:40:19;21.40;;;11.23;;
19221;SDS011;9745;50.828;4.378;2022-10-31T05:42:46;21.97;;;12.43;;
19221;SDS011;9745;50.828;4.378;2022-10-31T05:45:13;23.20;;;11.87;;
19221;SDS011;9745;50.828;4.378;2022-10-31T05:47:39;20.83;;;11.43;;
19221;SDS011;9745;50.828;4.378;2022-10-31T05:50:05;20.33;;;11.03;;
19221;SDS011;9745;50.828;4.378;2022-10-31T05:52:32;18.37;;;10.47;;
19221;SDS011;9745;50.828;4.378;2022-10-31T05:54:58;25.60;;;11.43;;
19221;SDS011;9745;50.828;4.378;2022-10-31T05:57:24;20.53;;;11.07;;
19221;SDS011;9745;50.828;4.378;2022-10-31T05:59:50;22.73;;;10.90;;
19221;SDS011;9745;50.828;4.378;2022-10-31T06:02:19;22.47;;;11.33;;
19221;SDS011;9745;50.828;4.378;2022-10-31T06:04:45;19.30;;;10.83;;
19221;SDS011;9745;50.828;4.378;2022-10-31T06:07:11;21.30;;;11.17;;
19221;SDS011;9745;50.828;4.378;2022-10-31T06:09:37;19.00;;;10.93;;
19221;SDS011;9745;50.828;4.378;2022-10-31T06:12:03;18.53;;;11.37;;
19221;SDS011;9745;50.828;4.378;2022-10-31T06:14:29;18.33;;;10.47;;
19221;SDS011;9745;50.828;4.378;2022-10-31T06:16:55;21.77;;;11.07;;
19221;SDS011;9745;50.828;4.378;2022-10-31T06:19:21;21.43;;;10.30;;
19221;SDS011;9745;50.828;4.378;2022-10-31T06:21:47;16.50;;;10.20;;
19221;SDS011;9745;50.828;4.378;2022-10-31T06:24:13;23.07;;;10.87;;
19221;SDS011;9745;50.828;4.378;2022-10-31T06:26:42;18.07;;;10.07;;
19221;SDS011;9745;50.828;4.378;2022-10-31T06:29:08;22.50;;;11.13;;
19221;SDS011;9745;50.828;4.378;2022-10-31T06:31:34;20.13;;;11.47;;
19221;SDS011;9745;50.828;4.378;2022-10-31T06:34:00;15.23;;;8.93;;
19221;SDS011;9745;50.828;4.378;2022-10-31T06:36:26;18.77;;;9.53;;
19221;SDS011;9745;50.828;4.378;2022-10-31T06:38:52;22.43;;;11.07;;
19221;SDS011;9745;50.828;4.378;2022-10-31T06:41:18;18.97;;;10.13;;
19221;SDS011;9745;50.828;4.378;2022-10-31T06:43:46;17.30;;;10.10;;
19221;SDS011;9745;50.828;4.378;2022-10-31T06:46:12;21.27;;;10.40;;
19221;SDS011;9745;50.828;4.378;2022-10-31T06:48:39;20.87;;;10.80;;
19221;SDS011;9745;50.828;4.378;2022-10-31T06:51:05;16.43;;;9.97;;
19221;SDS011;9745;50.828;4.378;2022-10-31T06:53:31;15.67;;;10.27;;
19221;SDS011;9745;50.828;4.378;2022-10-31T06:55:57;16.23;;;10.03;;
19221;SDS011;9745;50.828;4.378;2022-10-31T06:58:23;18.37;;;10.83;;
19221;SDS011;9745;50.828;4.378;2022-10-31T07:00:49;19.87;;;10.10;;
19221;SDS011;9745;50.828;4.378;2022-10-31T07:03:17;17.77;;;11.37;;
19221;SDS011;9745;50.828;4.378;2022-10-31T07:05:43;19.87;;;11.13;;
19221;SDS011;9745;50.828;4.378;2022-10-31T07:08:10;20.37;;;10.80;;
19221;SDS011;9745;50.828;4.378;2022-10-31T07:10:37;16.37;;;10.17;;
19221;SDS011;9745;50.828;4.378;2022-10-31T07:13:04;21.13;;;10.50;;
19221;SDS011;9745;50.828;4.378;2022-10-31T07:15:33;16.60;;;9.97;;
19221;SDS011;9745;50.828;4.378;2022-10-31T07:17:59;17.77;;;10.57;;
19221;SDS011;9745;50.828;4.378;2022-10-31T07:20:29;19.63;;;10.50;;
19221;SDS011;9745;50.828;4.378;2022-10-31T07:22:55;17.00;;;10.80;;
19221;SDS011;9745;50.828;4.378;2022-10-31T07:25:21;14.03;;;10.00;;
19221;SDS011;9745;50.828;4.378;2022-10-31T07:27:48;18.20;;;9.90;;
19221;SDS011;9745;50.828;4.378;2022-10-31T07:30:14;18.70;;;10.67;;
19221;SDS011;9745;50.828;4.378;2022-10-31T07:32:51;15.67;;;9.87;;
19221;SDS011;9745;50.828;4.378;2022-10-31T07:35:18;20.53;;;10.50;;
19221;SDS011;9745;50.828;4.378;2022-10-31T07:37:44;21.20;;;10.37;;
19221;SDS011;9745;50.828;4.378;2022-10-31T07:40:10;16.80;;;10.90;;
19221;SDS011;9745;50.828;4.378;2022-10-31T07:42:36;21.43;;;10.60;;
19221;SDS011;9745;50.828;4.378;2022-10-31T07:45:03;16.73;;;10.73;;
19221;SDS011;9745;50.828;4.378;2022-10-31T07:47:29;15.73;;;10.47;;
19221;SDS011;9745;50.828;4.378;2022-10-31T07:49:55;23.67;;;11.23;;
19221;SDS011;9745;50.828;4.378;2022-10-31T07:52:21;20.53;;;10.07;;
19221;SDS011;9745;50.828;4.378;2022-10-31T07:54:47;22.43;;;13.27;;
19221;SDS011;9745;50.828;4.378;2022-10-31T07:57:13;18.97;;;11.13;;
19221;SDS011;9745;50.828;4.378;2022-10-31T07:59:39;15.30;;;10.93;;
19221;SDS011;9745;50.828;4.378;2022-10-31T08:02:07;20.00;;;10.63;;
19221;SDS011;9745;50.828;4.378;2022-10-31T08:04:33;14.27;;;9.93;;
19221;SDS011;9745;50.828;4.378;2022-10-31T08:06:59;18.27;;;9.50;;
19221;SDS011;9745;50.828;4.378;2022-10-31T08:09:24;17.23;;;10.20;;
19221;SDS011;9745;50.828;4.378;2022-10-31T08:11:50;14.33;;;9.20;;
19221;SDS011;9745;50.828;4.378;2022-10-31T08:14:16;14.97;;;9.10;;
19221;SDS011;9745;50.828;4.378;2022-10-31T08:16:42;18.00;;;9.40;;
19221;SDS011;9745;50.828;4.378;2022-10-31T08:19:08;20.87;;;8.83;;
19221;SDS011;9745;50.828;4.378;2022-10-31T08:21:34;13.30;;;8.57;;
19221;SDS011;9745;50.828;4.378;2022-10-31T08:24:00;15.30;;;7.93;;
19221;SDS011;9745;50.828;4.378;2022-10-31T08:26:26;13.07;;;8.17;;
19221;SDS011;9745;50.828;4.378;2022-10-31T08:28:52;14.77;;;7.43;;
19221;SDS011;9745;50.828;4.378;2022-10-31T08:31:19;16.10;;;7.97;;
19221;SDS011;9745;50.828;4.378;2022-10-31T08:33:46;12.20;;;7.40;;
19221;SDS011;9745;50.828;4.378;2022-10-31T08:36:12;17.30;;;8.33;;
19221;SDS011;9745;50.828;4.378;2022-10-31T08:38:38;11.23;;;7.00;;
19221;SDS011;9745;50.828;4.378;2022-10-31T08:41:04;14.83;;;8.80;;
19221;SDS011;9745;50.828;4.378;2022-10-31T08:43:30;17.20;;;7.73;;
19221;SDS011;9745;50.828;4.378;2022-10-31T08:45:56;13.50;;;7.80;;
19221;SDS011;9745;50.828;4.378;2022-10-31T08:48:22;16.07;;;8.83;;
19221;SDS011;9745;50.828;4.378;2022-10-31T08:50:48;15.80;;;8.97;;
19221;SDS011;9745;50.828;4.378;2022-10-31T08:53:15;16.37;;;8.97;;
19221;SDS011;9745;50.828;4.378;2022-10-31T08:55:41;15.20;;;8.57;;
19221;SDS011;9745;50.828;4.378;2022-10-31T08:58:09;20.37;;;9.27;;
19221;SDS011;9745;50.828;4.378;2022-10-31T09:00:35;18.07;;;8.27;;
19221;SDS011;9745;50.828;4.378;2022-10-31T09:03:03;13.47;;;8.10;;
19221;SDS011;9745;50.828;4.378;2022-10-31T09:05:29;15.17;;;8.40;;
19221;SDS011;9745;50.828;4.378;2022-10-31T09:07:56;11.53;;;7.47;;
19221;SDS011;9745;50.828;4.378;2022-10-31T09:10:22;13.37;;;7.63;;
19221;SDS011;9745;50.828;4.378;2022-10-31T09:12:54;15.77;;;7.53;;
19221;SDS011;9745;50.828;4.378;2022-10-31T09:15:20;20.03;;;8.53;;
19221;SDS011;9745;50.828;4.378;2022-10-31T09:17:46;18.60;;;7.80;;
19221;SDS011;9745;50.828;4.378;2022-10-31T09:20:13;14.90;;;7.43;;
19221;SDS011;9745;50.828;4.378;2022-10-31T09:22:39;10.67;;;7.23;;
19221;SDS011;9745;50.828;4.378;2022-10-31T09:25:04;12.83;;;6.77;;
19221;SDS011;9745;50.828;4.378;2022-10-31T09:27:31;11.40;;;6.80;;
19221;SDS011;9745;50.828;4.378;2022-10-31T09:29:57;13.73;;;7.13;;
19221;SDS011;9745;50.828;4.378;2022-10-31T09:32:22;14.20;;;6.53;;
19221;SDS011;9745;50.828;4.378;2022-10-31T09:34:49;15.40;;;6.13;;
19221;SDS011;9745;50.828;4.378;2022-10-31T09:37:14;14.73;;;7.17;;
19221;SDS011;9745;50.828;4.378;2022-10-31T09:39:40;14.30;;;7.43;;
19221;SDS011;9745;50.828;4.378;2022-10-31T09:42:09;13.43;;;6.00;;
19221;SDS011;9745;50.828;4.378;2022-10-31T09:49:46;15.93;;;6.27;;
19221;SDS011;9745;50.828;4.378;2022-10-31T09:52:26;12.03;;;6.70;;
19221;SDS011;9745;50.828;4.378;2022-10-31T09:55:15;10.77;;;6.47;;
19221;SDS011;9745;50.828;4.378;2022-10-31T09:57:42;12.57;;;6.20;;
19221;SDS011;9745;50.828;4.378;2022-10-31T10:00:16;16.20;;;6.77;;
19221;SDS011;9745;50.828;4.378;2022-10-31T10:05:34;14.00;;;6.70;;
19221;SDS011;9745;50.828;4.378;2022-10-31T10:10:51;13.63;;;6.63;;
19221;SDS011;9745;50.828;4.378;2022-10-31T10:13:32;14.37;;;6.40;;
19221;SDS011;9745;50.828;4.378;2022-10-31T10:16:05;10.23;;;6.17;;
19221;SDS011;9745;50.828;4.378;2022-10-31T10:18:45;14.63;;;7.00;;
19221;SDS011;9745;50.828;4.378;2022-10-31T10:21:36;13.30;;;7.00;;
19221;SDS011;9745;50.828;4.378;2022-10-31T10:26:59;14.60;;;6.73;;
19221;SDS011;9745;50.828;4.378;2022-10-31T10:29:34;15.17;;;6.80;;
19221;SDS011;9745;50.828;4.378;2022-10-31T10:32:04;14.97;;;6.80;;
19221;SDS011;9745;50.828;4.378;2022-10-31T10:34:36;13.60;;;7.00;;
19221;SDS011;9745;50.828;4.378;2022-10-31T10:37:04;61.87;;;32.63;;
19221;SDS011;9745;50.828;4.378;2022-10-31T10:42:00;19.27;;;7.60;;
19221;SDS011;9745;50.828;4.378;2022-10-31T10:44:46;13.10;;;7.43;;
19221;SDS011;9745;50.828;4.378;2022-10-31T10:47:35;12.03;;;7.00;;
19221;SDS011;9745;50.828;4.378;2022-10-31T10:50:06;15.00;;;7.33;;
19221;SDS011;9745;50.828;4.378;2022-10-31T10:57:58;13.70;;;6.77;;
19221;SDS011;9745;50.828;4.378;2022-10-31T11:00:34;19.30;;;8.27;;
19221;SDS011;9745;50.828;4.378;2022-10-31T11:03:00;11.87;;;7.80;;
19221;SDS011;9745;50.828;4.378;2022-10-31T11:08:11;18.60;;;7.27;;
19221;SDS011;9745;50.828;4.378;2022-10-31T11:10:37;15.57;;;8.50;;
19221;SDS011;9745;50.828;4.378;2022-10-31T11:13:05;17.37;;;7.90;;
19221;SDS011;9745;50.828;4.378;2022-10-31T11:15:33;12.47;;;7.50;;
19221;SDS011;9745;50.828;4.378;2022-10-31T11:18:00;16.47;;;8.60;;
19221;SDS011;9745;50.828;4.378;2022-10-31T11:20:34;14.57;;;7.30;;
19221;SDS011;9745;50.828;4.378;2022-10-31T11:23:10;17.20;;;6.70;;
19221;SDS011;9745;50.828;4.378;2022-10-31T11:25:40;17.07;;;6.93;;
19221;SDS011;9745;50.828;4.378;2022-10-31T11:28:13;14.77;;;7.00;;
19221;SDS011;9745;50.828;4.378;2022-10-31T11:30:46;14.33;;;6.67;;
19221;SDS011;9745;50.828;4.378;2022-10-31T11:33:20;14.37;;;6.97;;
19221;SDS011;9745;50.828;4.378;2022-10-31T11:35:47;18.80;;;8.23;;
19221;SDS011;9745;50.828;4.378;2022-10-31T11:38:17;15.87;;;8.40;;
19221;SDS011;9745;50.828;4.378;2022-10-31T11:40:51;15.83;;;7.00;;
19221;SDS011;9745;50.828;4.378;2022-10-31T11:43:17;16.27;;;6.87;;
19221;SDS011;9745;50.828;4.378;2022-10-31T11:45:43;16.87;;;6.87;;
19221;SDS011;9745;50.828;4.378;2022-10-31T11:48:16;16.03;;;7.00;;
19221;SDS011;9745;50.828;4.378;2022-10-31T11:50:47;14.33;;;7.10;;
19221;SDS011;9745;50.828;4.378;2022-10-31T11:53:34;14.10;;;6.33;;
19221;SDS011;9745;50.828;4.378;2022-10-31T11:56:03;13.40;;;6.90;;
19221;SDS011;9745;50.828;4.378;2022-10-31T11:58:30;13.90;;;6.90;;
19221;SDS011;9745;50.828;4.378;2022-10-31T12:00:56;19.47;;;7.37;;
19221;SDS011;9745;50.828;4.378;2022-10-31T12:06:31;12.97;;;6.63;;
19221;SDS011;9745;50.828;4.378;2022-10-31T12:08:38;12.10;;;6.80;;
19221;SDS011;9745;50.828;4.378;2022-10-31T12:14:00;12.53;;;6.50;;
19221;SDS011;9745;50.828;4.378;2022-10-31T12:16:34;15.23;;;7.33;;
19221;SDS011;9745;50.828;4.378;2022-10-31T12:21:39;15.30;;;7.00;;
19221;SDS011;9745;50.828;4.378;2022-10-31T12:31:46;14.70;;;6.60;;
19221;SDS011;9745;50.828;4.378;2022-10-31T12:44:30;14.87;;;5.63;;
19221;SDS011;9745;50.828;4.378;2022-10-31T12:47:22;17.70;;;6.10;;
19221;SDS011;9745;50.828;4.378;2022-10-31T12:55:00;12.40;;;5.67;;
19221;SDS011;9745;50.828;4.378;2022-10-31T13:02:38;13.83;;;6.40;;
19221;SDS011;9745;50.828;4.378;2022-10-31T13:07:39;13.47;;;5.40;;
19221;SDS011;9745;50.828;4.378;2022-10-31T13:12:51;13.33;;;6.73;;
19221;SDS011;9745;50.828;4.378;2022-10-31T13:15:18;18.03;;;5.57;;
19221;SDS011;9745;50.828;4.378;2022-10-31T13:17:50;14.57;;;6.37;;
19221;SDS011;9745;50.828;4.378;2022-10-31T13:20:20;9.77;;;5.03;;
19221;SDS011;9745;50.828;4.378;2022-10-31T13:22:47;11.60;;;5.20;;
19221;SDS011;9745;50.828;4.378;2022-10-31T13:30:29;14.73;;;6.23;;
19221;SDS011;9745;50.828;4.378;2022-10-31T13:33:14;14.97;;;6.00;;
19221;SDS011;9745;50.828;4.378;2022-10-31T13:38:19;13.37;;;5.60;;
19221;SDS011;9745;50.828;4.378;2022-10-31T13:40:54;11.83;;;5.20;;
19221;SDS011;9745;50.828;4.378;2022-10-31T13:43:31;11.80;;;5.47;;
19221;SDS011;9745;50.828;4.378;2022-10-31T13:45:59;15.97;;;5.67;;
19221;SDS011;9745;50.828;4.378;2022-10-31T13:50:58;10.03;;;5.40;;
19221;SDS011;9745;50.828;4.378;2022-10-31T13:58:34;11.37;;;5.30;;
19221;SDS011;9745;50.828;4.378;2022-10-31T14:03:36;14.90;;;5.50;;
19221;SDS011;9745;50.828;4.378;2022-10-31T14:06:03;14.70;;;5.33;;
19221;SDS011;9745;50.828;4.378;2022-10-31T14:08:31;16.07;;;5.23;;
19221;SDS011;9745;50.828;4.378;2022-10-31T14:10:59;13.23;;;5.43;;
19221;SDS011;9745;50.828;4.378;2022-10-31T14:13:43;11.87;;;4.90;;
19221;SDS011;9745;50.828;4.378;2022-10-31T14:18:43;14.63;;;4.90;;
19221;SDS011;9745;50.828;4.378;2022-10-31T14:23:49;15.37;;;5.50;;
19221;SDS011;9745;50.828;4.378;2022-10-31T14:29:38;15.50;;;4.90;;
19221;SDS011;9745;50.828;4.378;2022-10-31T14:31:51;11.90;;;5.50;;
19221;SDS011;9745;50.828;4.378;2022-10-31T14:42:27;13.67;;;4.90;;
19221;SDS011;9745;50.828;4.378;2022-10-31T14:44:58;11.33;;;4.20;;
19221;SDS011;9745;50.828;4.378;2022-10-31T14:47:36;12.63;;;4.00;;
19221;SDS011;9745;50.828;4.378;2022-10-31T14:52:31;16.93;;;6.83;;
19221;SDS011;9745;50.828;4.378;2022-10-31T14:54:58;12.83;;;5.73;;
19221;SDS011;9745;50.828;4.378;2022-10-31T14:57:26;12.70;;;4.90;;
19221;SDS011;9745;50.828;4.378;2022-10-31T14:59:55;14.73;;;4.87;;
19221;SDS011;9745;50.828;4.378;2022-10-31T15:02:24;12.03;;;4.70;;
19221;SDS011;9745;50.828;4.378;2022-10-31T15:04:53;12.23;;;5.37;;
19221;SDS011;9745;50.828;4.378;2022-10-31T15:07:21;13.37;;;6.23;;
19221;SDS011;9745;50.828;4.378;2022-10-31T15:10:02;14.93;;;5.07;;
19221;SDS011;9745;50.828;4.378;2022-10-31T15:12:33;15.63;;;5.87;;
19221;SDS011;9745;50.828;4.378;2022-10-31T15:17:45;13.97;;;5.43;;
19221;SDS011;9745;50.828;4.378;2022-10-31T15:20:17;13.73;;;5.50;;
19221;SDS011;9745;50.828;4.378;2022-10-31T15:22:43;13.87;;;5.47;;
19221;SDS011;9745;50.828;4.378;2022-10-31T15:25:17;14.07;;;5.23;;
19221;SDS011;9745;50.828;4.378;2022-10-31T15:27:44;15.47;;;6.10;;
19221;SDS011;9745;50.828;4.378;2022-10-31T15:30:19;13.87;;;6.40;;
19221;SDS011;9745;50.828;4.378;2022-10-31T15:32:46;12.20;;;5.20;;
19221;SDS011;9745;50.828;4.378;2022-10-31T15:35:22;15.80;;;6.50;;
19221;SDS011;9745;50.828;4.378;2022-10-31T15:37:49;13.97;;;5.97;;
19221;SDS011;9745;50.828;4.378;2022-10-31T15:40:16;13.23;;;6.43;;
19221;SDS011;9745;50.828;4.378;2022-10-31T15:42:43;11.30;;;5.83;;
19221;SDS011;9745;50.828;4.378;2022-10-31T15:47:36;15.67;;;6.70;;
19221;SDS011;9745;50.828;4.378;2022-10-31T15:50:03;13.30;;;6.93;;
19221;SDS011;9745;50.828;4.378;2022-10-31T15:52:39;16.53;;;7.17;;
19221;SDS011;9745;50.828;4.378;2022-10-31T15:57:55;14.50;;;7.40;;
19221;SDS011;9745;50.828;4.378;2022-10-31T16:02:48;15.47;;;7.40;;
19221;SDS011;9745;50.828;4.378;2022-10-31T16:05:15;15.27;;;7.37;;
19221;SDS011;9745;50.828;4.378;2022-10-31T16:07:47;16.37;;;8.00;;
19221;SDS011;9745;50.828;4.378;2022-10-31T16:10:21;19.67;;;7.97;;
19221;SDS011;9745;50.828;4.378;2022-10-31T16:12:48;13.93;;;7.47;;
19221;SDS011;9745;50.828;4.378;2022-10-31T16:15:15;13.43;;;7.20;;
19221;SDS011;9745;50.828;4.378;2022-10-31T16:17:46;18.43;;;8.30;;
19221;SDS011;9745;50.828;4.378;2022-10-31T16:20:21;18.17;;;9.00;;
19221;SDS011;9745;50.828;4.378;2022-10-31T16:22:48;14.43;;;7.97;;
19221;SDS011;9745;50.828;4.378;2022-10-31T16:25:16;19.10;;;8.00;;
19221;SDS011;9745;50.828;4.378;2022-10-31T16:27:49;19.90;;;7.80;;
19221;SDS011;9745;50.828;4.378;2022-10-31T16:30:35;14.70;;;7.57;;
19221;SDS011;9745;50.828;4.378;2022-10-31T16:33:02;20.30;;;7.53;;
19221;SDS011;9745;50.828;4.378;2022-10-31T16:35:33;21.53;;;9.20;;
19221;SDS011;9745;50.828;4.378;2022-10-31T16:37:59;14.73;;;7.63;;
19221;SDS011;9745;50.828;4.378;2022-10-31T16:40:25;17.93;;;8.70;;
19221;SDS011;9745;50.828;4.378;2022-10-31T16:42:51;17.50;;;8.57;;
19221;SDS011;9745;50.828;4.378;2022-10-31T16:45:21;15.93;;;7.93;;
19221;SDS011;9745;50.828;4.378;2022-10-31T16:47:47;16.60;;;8.67;;
19221;SDS011;9745;50.828;4.378;2022-10-31T16:50:19;12.60;;;7.50;;
19221;SDS011;9745;50.828;4.378;2022-10-31T16:52:45;17.87;;;7.90;;
19221;SDS011;9745;50.828;4.378;2022-10-31T16:55:15;17.87;;;7.83;;
19221;SDS011;9745;50.828;4.378;2022-10-31T16:57:43;12.10;;;7.17;;
19221;SDS011;9745;50.828;4.378;2022-10-31T17:00:13;14.43;;;7.60;;
19221;SDS011;9745;50.828;4.378;2022-10-31T17:02:39;14.97;;;7.77;;
19221;SDS011;9745;50.828;4.378;2022-10-31T17:05:08;16.13;;;7.83;;
19221;SDS011;9745;50.828;4.378;2022-10-31T17:07:34;17.60;;;7.33;;
19221;SDS011;9745;50.828;4.378;2022-10-31T17:10:00;17.30;;;7.40;;
19221;SDS011;9745;50.828;4.378;2022-10-31T17:12:26;17.67;;;6.43;;